createdAt,value
2023-05-19T00:00:05.724Z,8141.00
2023-05-19T00:01:05.801Z,8166.00
2023-05-19T00:02:05.979Z,8174.00
2023-05-19T00:03:05.962Z,8194.00
2023-05-19T00:04:05.912Z,8272.00
2023-05-19T00:05:05.961Z,8308.00
2023-05-19T00:06:06.073Z,8337.00
2023-05-19T00:07:06.070Z,8334.00
2023-05-19T00:08:06.140Z,8311.00
2023-05-19T00:09:06.210Z,8273.00
2023-05-19T00:10:06.248Z,8236.00
2023-05-19T00:11:06.346Z,8182.00
2023-05-19T00:12:06.363Z,8207.00
2023-05-19T00:13:06.418Z,8291.00
2023-05-19T00:14:06.467Z,8373.00
2023-05-19T00:15:06.463Z,8431.00
2023-05-19T00:16:06.529Z,8511.00
2023-05-19T00:17:06.567Z,8516.00
2023-05-19T00:18:06.638Z,8483.00
2023-05-19T00:19:06.728Z,8476.00
2023-05-19T00:20:06.717Z,8428.00
2023-05-19T00:21:06.756Z,8387.00
2023-05-19T00:22:06.777Z,8375.00
2023-05-19T00:23:06.803Z,8362.00
2023-05-19T00:24:06.846Z,8329.00
2023-05-19T00:25:07.313Z,8235.00
2023-05-19T00:26:06.900Z,8152.00
2023-05-19T00:27:06.930Z,8100.00
2023-05-19T00:28:06.949Z,8070.00
2023-05-19T00:29:06.976Z,7952.00
2023-05-19T00:30:07.076Z,7878.00
2023-05-19T00:31:07.053Z,7833.00
2023-05-19T00:32:07.180Z,7766.00
2023-05-19T00:33:07.167Z,7823.00
2023-05-19T00:34:07.162Z,7890.00
2023-05-19T00:35:07.207Z,8002.00
2023-05-19T00:36:07.244Z,8151.00
2023-05-19T00:37:07.300Z,8169.00
2023-05-19T00:38:07.342Z,8141.00
2023-05-19T00:39:07.393Z,8089.00
2023-05-19T00:40:07.420Z,8053.00
2023-05-19T00:41:07.481Z,8010.00
2023-05-19T00:42:07.501Z,7991.00
2023-05-19T00:43:07.527Z,7975.00
2023-05-19T00:44:07.614Z,7932.00
2023-05-19T00:45:07.642Z,7958.00
2023-05-19T00:46:07.797Z,8006.00
2023-05-19T00:47:07.771Z,8047.00
2023-05-19T00:48:07.806Z,8138.00
2023-05-19T00:49:07.782Z,8091.00
2023-05-19T00:50:07.816Z,8062.00
2023-05-19T00:51:07.835Z,8018.00
2023-05-19T00:52:07.873Z,7953.00
2023-05-19T00:53:07.888Z,7908.00
2023-05-19T00:54:07.949Z,7957.00
2023-05-19T00:55:07.953Z,7967.00
2023-05-19T00:56:07.984Z,7986.00
2023-05-19T00:57:08.008Z,8073.00
2023-05-19T00:58:08.057Z,8109.00
2023-05-19T00:59:08.090Z,8133.00
2023-05-19T01:00:08.137Z,8138.00
2023-05-19T01:01:08.198Z,8137.00
2023-05-19T01:02:08.178Z,8140.00
2023-05-19T01:03:08.281Z,8184.00
2023-05-19T01:04:08.324Z,8216.00
2023-05-19T01:05:08.301Z,8212.00
2023-05-19T01:06:08.440Z,8272.00
2023-05-19T01:07:08.394Z,8371.00
2023-05-19T01:08:08.411Z,8455.00
2023-05-19T01:09:08.487Z,8534.00
2023-05-19T01:10:08.524Z,8541.00
2023-05-19T01:11:08.563Z,8553.00
2023-05-19T01:12:08.652Z,8587.00
2023-05-19T01:13:08.641Z,8594.00
2023-05-19T01:14:08.664Z,8606.00
2023-05-19T01:15:08.701Z,8611.00
2023-05-19T01:16:08.905Z,8604.00
2023-05-19T01:17:08.766Z,8606.00
2023-05-19T01:18:08.846Z,8620.00
2023-05-19T01:19:08.894Z,8606.00
2023-05-19T01:20:08.900Z,8588.00
2023-05-19T01:21:08.971Z,8544.00
2023-05-19T01:22:09.834Z,8533.00
2023-05-19T01:23:09.010Z,8544.00
2023-05-19T01:24:09.076Z,8588.00
2023-05-19T01:25:09.110Z,8653.00
2023-05-19T01:26:09.165Z,8627.00
2023-05-19T01:27:09.186Z,8603.00
2023-05-19T01:28:09.215Z,8544.00
2023-05-19T01:29:09.273Z,8536.00
2023-05-19T01:30:09.273Z,8550.00
2023-05-19T01:31:09.310Z,8660.00
2023-05-19T01:32:09.378Z,8794.00
2023-05-19T01:33:09.495Z,8933.00
2023-05-19T01:34:09.490Z,8957.00
2023-05-19T01:35:09.513Z,8934.00
2023-05-19T01:36:09.547Z,8901.00
2023-05-19T01:37:09.580Z,8864.00
2023-05-19T01:38:09.623Z,8776.00
2023-05-19T01:39:09.643Z,8653.00
2023-05-19T01:40:09.687Z,8579.00
2023-05-19T01:41:09.738Z,8458.00
2023-05-19T01:42:09.752Z,8368.00
2023-05-19T01:43:09.793Z,8272.00
2023-05-19T01:44:09.805Z,8186.00
2023-05-19T01:45:09.819Z,8053.00
2023-05-19T01:46:09.861Z,7986.00
2023-05-19T01:47:09.860Z,7961.00
2023-05-19T01:48:11.189Z,7917.00
2023-05-19T01:49:09.947Z,7881.00
2023-05-19T01:50:09.974Z,7861.00
2023-05-19T01:51:09.986Z,7759.00
2023-05-19T01:52:09.997Z,7660.00
2023-05-19T01:53:10.022Z,7661.00
2023-05-19T01:54:10.860Z,7630.00
2023-05-19T01:55:10.124Z,7681.00
2023-05-19T01:56:10.182Z,7714.00
2023-05-19T01:57:10.165Z,7719.00
2023-05-19T01:58:10.198Z,7782.00
2023-05-19T01:59:10.191Z,7827.00
2023-05-19T02:00:10.219Z,7868.00
2023-05-19T02:01:10.305Z,7839.00
2023-05-19T02:02:10.269Z,7871.00
2023-05-19T02:03:10.310Z,7933.00
2023-05-19T02:04:10.379Z,7943.00
2023-05-19T02:05:10.374Z,7910.00
2023-05-19T02:06:10.886Z,7872.00
2023-05-19T02:07:10.479Z,7817.00
2023-05-19T02:08:10.540Z,7884.00
2023-05-19T02:09:10.582Z,7958.00
2023-05-19T02:10:10.673Z,7909.00
2023-05-19T02:11:10.670Z,7814.00
2023-05-19T02:12:10.721Z,7818.00
2023-05-19T02:13:10.721Z,7861.00
2023-05-19T02:14:10.750Z,7851.00
2023-05-19T02:15:10.767Z,7815.00
2023-05-19T02:16:10.838Z,7864.00
2023-05-19T02:17:10.824Z,7856.00
2023-05-19T02:18:10.826Z,7803.00
2023-05-19T02:19:10.865Z,7770.00
2023-05-19T02:20:11.015Z,7749.00
2023-05-19T02:21:10.941Z,7740.00
2023-05-19T02:22:10.977Z,7619.00
2023-05-19T02:23:11.013Z,7661.00
2023-05-19T02:24:11.043Z,7706.00
2023-05-19T02:25:11.078Z,7748.00
2023-05-19T02:26:11.159Z,7761.00
2023-05-19T02:27:11.101Z,7738.00
2023-05-19T02:28:11.138Z,7667.00
2023-05-19T02:29:11.193Z,7594.00
2023-05-19T02:30:11.190Z,7572.00
2023-05-19T02:31:11.230Z,7545.00
2023-05-19T02:32:11.431Z,7544.00
2023-05-19T02:33:11.388Z,7541.00
2023-05-19T02:34:11.393Z,7525.00
2023-05-19T02:35:11.335Z,7469.00
2023-05-19T02:36:11.386Z,7488.00
2023-05-19T02:37:11.342Z,7518.00
2023-05-19T02:38:11.376Z,7549.00
2023-05-19T02:39:11.409Z,7658.00
2023-05-19T02:40:11.454Z,7677.00
2023-05-19T02:41:11.465Z,7652.00
2023-05-19T02:42:11.482Z,7684.00
2023-05-19T02:43:11.494Z,7758.00
2023-05-19T02:44:11.516Z,7859.00
2023-05-19T02:45:11.561Z,7911.00
2023-05-19T02:46:11.748Z,7972.00
2023-05-19T02:47:11.597Z,7946.00
2023-05-19T02:48:11.660Z,7978.00
2023-05-19T02:49:11.669Z,8018.00
2023-05-19T02:50:11.668Z,8119.00
2023-05-19T02:51:11.668Z,8125.00
2023-05-19T02:52:11.735Z,8121.00
2023-05-19T02:53:11.725Z,8089.00
2023-05-19T02:54:12.390Z,8035.00
2023-05-19T02:55:11.752Z,7998.00
2023-05-19T02:56:11.749Z,7953.00
2023-05-19T02:57:11.743Z,7944.00
2023-05-19T02:58:11.781Z,8002.00
2023-05-19T02:59:11.822Z,8092.00
2023-05-19T03:00:11.816Z,8093.00
2023-05-19T03:01:11.849Z,8043.00
2023-05-19T03:02:11.978Z,7939.00
2023-05-19T03:03:11.935Z,7831.00
2023-05-19T03:04:11.893Z,7651.00
2023-05-19T03:05:11.897Z,7582.00
2023-05-19T03:06:11.925Z,7601.00
2023-05-19T03:07:11.959Z,7504.00
2023-05-19T03:08:11.969Z,7479.00
2023-05-19T03:09:11.999Z,7441.00
2023-05-19T03:10:12.025Z,7405.00
2023-05-19T03:11:12.038Z,7409.00
2023-05-19T03:12:12.044Z,7430.00
2023-05-19T03:13:12.062Z,7458.00
2023-05-19T03:14:12.081Z,7442.00
2023-05-19T03:15:12.105Z,7427.00
2023-05-19T03:16:12.141Z,7384.00
2023-05-19T03:17:12.190Z,7311.00
2023-05-19T03:18:12.198Z,7284.00
2023-05-19T03:19:12.216Z,7290.00
2023-05-19T03:20:12.224Z,7264.00
2023-05-19T03:21:12.226Z,7235.00
2023-05-19T03:22:12.230Z,7254.00
2023-05-19T03:23:12.257Z,7263.00
2023-05-19T03:24:12.295Z,7202.00
2023-05-19T03:25:12.300Z,7175.00
2023-05-19T03:26:12.302Z,7055.00
2023-05-19T03:27:12.336Z,7064.00
2023-05-19T03:28:12.350Z,7041.00
2023-05-19T03:29:12.415Z,6994.00
2023-05-19T03:30:12.444Z,6989.00
2023-05-19T03:31:12.505Z,6956.00
2023-05-19T03:32:12.517Z,6960.00
2023-05-19T03:33:12.761Z,6934.00
2023-05-19T03:34:12.673Z,6965.00
2023-05-19T03:35:12.635Z,6926.00
2023-05-19T03:36:12.704Z,6871.00
2023-05-19T03:37:12.723Z,6822.00
2023-05-19T03:38:12.738Z,6842.00
2023-05-19T03:39:12.793Z,6907.00
2023-05-19T03:40:12.860Z,6955.00
2023-05-19T03:41:12.866Z,7027.00
2023-05-19T03:42:12.939Z,7087.00
2023-05-19T03:43:12.950Z,7139.00
2023-05-19T03:44:12.941Z,7106.00
2023-05-19T03:45:12.963Z,7196.00
2023-05-19T03:46:13.036Z,7295.00
2023-05-19T03:47:12.958Z,7270.00
2023-05-19T03:48:13.051Z,7340.00
2023-05-19T03:49:13.042Z,7434.00
2023-05-19T03:50:13.059Z,7443.00
2023-05-19T03:51:13.119Z,7503.00
2023-05-19T03:52:13.148Z,7480.00
2023-05-19T03:53:13.149Z,7489.00
2023-05-19T03:54:13.168Z,7529.00
2023-05-19T03:55:13.203Z,7577.00
2023-05-19T03:56:13.230Z,7592.00
2023-05-19T03:57:13.226Z,7667.00
2023-05-19T03:58:13.265Z,7624.00
2023-05-19T03:59:13.320Z,7636.00
2023-05-19T04:00:13.358Z,7680.00
2023-05-19T04:01:13.375Z,7687.00
2023-05-19T04:02:13.432Z,7658.00
2023-05-19T04:03:13.518Z,7627.00
2023-05-19T04:04:13.454Z,7613.00
2023-05-19T04:05:13.451Z,7618.00
2023-05-19T04:06:13.457Z,7684.00
2023-05-19T04:07:13.469Z,7675.00
2023-05-19T04:08:13.504Z,7698.00
2023-05-19T04:09:13.522Z,7766.00
2023-05-19T04:10:13.553Z,7818.00
2023-05-19T04:11:13.567Z,7873.00
2023-05-19T04:12:13.570Z,7863.00
2023-05-19T04:13:13.643Z,7910.00
2023-05-19T04:14:13.684Z,7903.00
2023-05-19T04:15:13.679Z,7837.00
2023-05-19T04:16:13.762Z,7815.00
2023-05-19T04:17:13.776Z,7807.00
2023-05-19T04:18:13.901Z,7757.00
2023-05-19T04:19:13.911Z,7744.00
2023-05-19T04:20:13.922Z,7812.00
2023-05-19T04:21:13.915Z,7971.00
2023-05-19T04:22:13.948Z,8103.00
2023-05-19T04:23:13.949Z,8167.00
2023-05-19T04:24:14.000Z,8139.00
2023-05-19T04:25:14.029Z,8093.00
2023-05-19T04:26:14.036Z,8062.00
2023-05-19T04:27:14.071Z,8054.00
2023-05-19T04:28:14.136Z,8004.00
2023-05-19T04:29:14.185Z,7916.00
2023-05-19T04:30:15.221Z,7829.00
2023-05-19T04:31:14.334Z,7755.00
2023-05-19T04:32:14.352Z,7794.00
2023-05-19T04:33:14.418Z,7840.00
2023-05-19T04:34:14.461Z,7769.00
2023-05-19T04:35:14.516Z,7987.00
2023-05-19T04:36:14.555Z,8170.00
2023-05-19T04:37:14.559Z,8248.00
2023-05-19T04:38:14.580Z,8518.00
2023-05-19T04:39:14.657Z,8932.00
2023-05-19T04:40:14.677Z,9125.00
2023-05-19T04:41:14.771Z,8868.00
2023-05-19T04:42:14.792Z,8596.00
2023-05-19T04:43:14.872Z,8391.00
2023-05-19T04:44:14.876Z,8399.00
2023-05-19T04:45:14.918Z,8461.00
2023-05-19T04:46:14.979Z,8393.00
2023-05-19T04:47:14.963Z,8311.00
2023-05-19T04:48:15.015Z,8215.00
2023-05-19T04:49:15.009Z,8170.00
2023-05-19T04:50:15.009Z,8078.00
2023-05-19T04:51:15.037Z,8071.00
2023-05-19T04:52:15.034Z,8065.00
2023-05-19T04:53:15.031Z,8047.00
2023-05-19T04:54:15.076Z,8034.00
2023-05-19T04:55:15.085Z,7808.00
2023-05-19T04:56:15.086Z,8851.00
2023-05-19T04:57:15.116Z,9311.00
2023-05-19T04:58:15.105Z,9099.00
2023-05-19T04:59:15.077Z,8734.00
2023-05-19T05:00:15.133Z,8524.00
2023-05-19T05:01:15.130Z,8491.00
2023-05-19T05:02:15.162Z,8482.00
2023-05-19T05:03:15.280Z,8484.00
2023-05-19T05:04:15.266Z,8534.00
2023-05-19T05:05:15.179Z,8567.00
2023-05-19T05:06:15.189Z,8622.00
2023-05-19T05:07:15.224Z,8736.00
2023-05-19T05:08:15.221Z,8825.00
2023-05-19T05:09:15.229Z,8873.00
2023-05-19T05:10:15.272Z,8963.00
2023-05-19T05:11:15.310Z,9081.00
2023-05-19T05:12:15.339Z,9298.00
2023-05-19T05:13:15.341Z,9509.00
2023-05-19T05:14:15.366Z,9702.00
2023-05-19T05:15:15.364Z,10009.00
2023-05-19T05:16:15.453Z,10319.00
2023-05-19T05:17:15.416Z,10576.00
2023-05-19T05:18:15.464Z,10607.00
2023-05-19T05:19:15.499Z,10560.00
2023-05-19T05:20:15.500Z,10585.00
2023-05-19T05:21:15.550Z,10587.00
2023-05-19T05:22:15.590Z,10452.00
2023-05-19T05:23:15.591Z,10344.00
2023-05-19T05:24:15.620Z,10328.00
2023-05-19T05:25:15.605Z,10435.00
2023-05-19T05:26:15.633Z,10604.00
2023-05-19T05:27:15.632Z,10658.00
2023-05-19T05:28:15.637Z,10650.00
2023-05-19T05:29:15.621Z,10620.00
2023-05-19T05:30:15.627Z,10551.00
2023-05-19T05:31:15.670Z,10435.00
2023-05-19T05:32:15.652Z,10354.00
2023-05-19T05:33:15.734Z,10192.00
2023-05-19T05:34:15.678Z,10025.00
2023-05-19T05:35:15.706Z,9796.00
2023-05-19T05:36:15.781Z,9651.00
2023-05-19T05:37:15.792Z,9623.00
2023-05-19T05:38:15.854Z,9621.00
2023-05-19T05:39:15.880Z,9649.00
2023-05-19T05:40:15.924Z,9734.00
2023-05-19T05:41:15.919Z,9654.00
2023-05-19T05:42:15.925Z,9409.00
2023-05-19T05:43:15.987Z,9226.00
2023-05-19T05:44:16.006Z,9054.00
2023-05-19T05:45:16.020Z,8983.00
2023-05-19T05:46:16.142Z,8956.00
2023-05-19T05:47:16.135Z,9028.00
2023-05-19T05:48:16.236Z,9054.00
2023-05-19T05:49:16.182Z,9093.00
2023-05-19T05:50:16.176Z,9161.00
2023-05-19T05:51:16.189Z,9251.00
2023-05-19T05:52:16.239Z,9318.00
2023-05-19T05:53:16.283Z,9449.00
2023-05-19T05:54:16.342Z,9356.00
2023-05-19T05:55:16.363Z,9184.00
2023-05-19T05:56:16.384Z,9020.00
2023-05-19T05:57:16.387Z,8824.00
2023-05-19T05:58:16.369Z,8648.00
2023-05-19T05:59:16.425Z,8598.00
2023-05-19T06:00:16.475Z,8495.00
2023-05-19T06:01:16.493Z,8464.00
2023-05-19T06:02:16.581Z,8183.00
2023-05-19T06:03:16.599Z,8153.00
2023-05-19T06:04:16.643Z,7778.00
2023-05-19T06:05:16.685Z,7555.00
2023-05-19T06:06:16.636Z,7421.00
2023-05-19T06:07:16.687Z,7377.00
2023-05-19T06:08:16.716Z,7404.00
2023-05-19T06:09:16.763Z,7462.00
2023-05-19T06:10:16.793Z,7708.00
2023-05-19T06:11:16.858Z,7815.00
2023-05-19T06:12:16.874Z,7826.00
2023-05-19T06:13:16.869Z,7864.00
2023-05-19T06:14:16.942Z,8020.00
2023-05-19T06:15:16.962Z,8088.00
2023-05-19T06:16:17.069Z,8044.00
2023-05-19T06:17:16.997Z,8068.00
2023-05-19T06:18:17.038Z,8022.00
2023-05-19T06:19:17.124Z,7820.00
2023-05-19T06:20:17.112Z,7749.00
2023-05-19T06:21:17.205Z,7866.00
2023-05-19T06:22:17.166Z,8275.00
2023-05-19T06:23:17.182Z,8400.00
2023-05-19T06:24:17.180Z,8020.00
2023-05-19T06:25:17.190Z,7820.00
2023-05-19T06:26:17.218Z,7554.00
2023-05-19T06:27:17.245Z,7364.00
2023-05-19T06:28:17.300Z,7355.00
2023-05-19T06:29:17.367Z,7388.00
2023-05-19T06:30:17.402Z,7383.00
2023-05-19T06:31:17.466Z,7338.00
2023-05-19T06:32:17.459Z,7173.00
2023-05-19T06:33:17.470Z,7048.00
2023-05-19T06:34:17.530Z,6994.00
2023-05-19T06:35:17.563Z,6741.00
2023-05-19T06:36:17.621Z,6593.00
2023-05-19T06:37:17.643Z,6616.00
2023-05-19T06:38:17.673Z,6737.00
2023-05-19T06:39:17.680Z,6899.00
2023-05-19T06:40:17.710Z,6843.00
2023-05-19T06:41:17.752Z,6789.00
2023-05-19T06:42:17.770Z,6772.00
2023-05-19T06:43:17.838Z,6811.00
2023-05-19T06:44:19.803Z,7036.00
2023-05-19T06:45:17.833Z,7197.00
2023-05-19T06:46:17.915Z,7193.00
2023-05-19T06:47:17.857Z,7175.00
2023-05-19T06:48:17.883Z,7199.00
2023-05-19T06:49:17.784Z,7133.00
2023-05-19T06:50:17.799Z,7015.00
2023-05-19T06:51:17.779Z,6691.00
2023-05-19T06:52:17.869Z,6423.00
2023-05-19T06:53:17.773Z,6111.00
2023-05-19T06:54:17.775Z,6106.00
2023-05-19T06:55:17.746Z,6181.00
2023-05-19T06:56:17.742Z,5978.00
2023-05-19T06:57:17.731Z,6225.00
2023-05-19T06:58:17.717Z,6942.00
2023-05-19T06:59:17.720Z,6716.00
2023-05-19T07:00:19.817Z,6626.00
2023-05-19T07:01:17.750Z,6568.00
2023-05-19T07:02:17.735Z,6405.00
2023-05-19T07:03:17.761Z,6163.00
2023-05-19T07:04:17.686Z,5955.00
2023-05-19T07:05:17.703Z,6135.00
2023-05-19T07:06:17.670Z,6221.00
2023-05-19T07:07:17.684Z,6048.00
2023-05-19T07:08:17.659Z,5828.00
2023-05-19T07:09:17.655Z,5822.00
2023-05-19T07:10:17.632Z,5933.00
2023-05-19T07:11:17.650Z,5827.00
2023-05-19T07:12:17.634Z,5638.00
2023-05-19T07:13:17.636Z,5418.00
2023-05-19T07:14:17.635Z,5273.00
2023-05-19T07:15:17.605Z,5409.00
2023-05-19T07:16:17.607Z,5466.00
2023-05-19T07:17:17.659Z,5451.00
2023-05-19T07:18:17.605Z,5379.00
2023-05-19T07:19:17.629Z,5391.00
2023-05-19T07:20:17.580Z,5223.00
2023-05-19T07:21:17.576Z,5049.00
2023-05-19T07:22:17.567Z,5104.00
2023-05-19T07:23:17.618Z,5166.00
2023-05-19T07:24:17.553Z,5258.00
2023-05-19T07:25:17.548Z,5807.00
2023-05-19T07:26:17.548Z,5546.00
2023-05-19T07:27:17.528Z,5405.00
2023-05-19T07:28:17.539Z,5173.00
2023-05-19T07:29:17.556Z,4817.00
2023-05-19T07:30:17.520Z,4618.00
2023-05-19T07:31:17.512Z,4398.00
2023-05-19T07:32:17.556Z,4304.00
2023-05-19T07:33:17.495Z,4327.00
2023-05-19T07:34:17.472Z,4419.00
2023-05-19T07:35:17.494Z,4565.00
2023-05-19T07:36:17.465Z,4700.00
2023-05-19T07:37:17.467Z,4684.00
2023-05-19T07:38:17.464Z,4723.00
2023-05-19T07:39:17.595Z,4834.00
2023-05-19T07:40:17.541Z,4895.00
2023-05-19T07:41:17.452Z,5019.00
2023-05-19T07:42:17.429Z,5073.00
2023-05-19T07:43:17.442Z,5095.00
2023-05-19T07:44:17.402Z,5179.00
2023-05-19T07:45:17.436Z,4963.00
2023-05-19T07:46:17.475Z,4732.00
2023-05-19T07:47:17.468Z,4642.00
2023-05-19T07:48:17.599Z,4600.00
2023-05-19T07:49:17.551Z,4715.00
2023-05-19T07:50:17.609Z,4819.00
2023-05-19T07:51:17.655Z,4676.00
2023-05-19T07:52:17.691Z,4421.00
2023-05-19T07:53:17.727Z,4398.00
2023-05-19T07:54:17.796Z,4406.00
2023-05-19T07:55:17.819Z,4237.00
2023-05-19T07:56:17.864Z,4244.00
2023-05-19T07:57:17.912Z,4462.00
2023-05-19T07:58:17.943Z,4716.00
2023-05-19T07:59:18.000Z,4984.00
2023-05-19T08:00:18.050Z,4920.00
2023-05-19T08:01:18.079Z,4828.00
2023-05-19T08:02:18.188Z,4845.00
2023-05-19T08:03:18.382Z,4641.00
2023-05-19T08:04:18.354Z,4579.00
2023-05-19T08:05:18.219Z,4547.00
2023-05-19T08:06:18.226Z,4245.00
2023-05-19T08:07:18.252Z,3868.00
2023-05-19T08:08:18.267Z,3811.00
2023-05-19T08:09:18.291Z,3802.00
2023-05-19T08:10:18.362Z,3566.00
2023-05-19T08:11:18.332Z,3642.00
2023-05-19T08:12:18.568Z,3442.00
2023-05-19T08:13:18.511Z,3512.00
2023-05-19T08:14:18.478Z,3721.00
2023-05-19T08:15:18.542Z,3838.00
2023-05-19T08:16:18.655Z,4053.00
2023-05-19T08:17:18.647Z,4393.00
2023-05-19T08:18:18.663Z,4660.00
2023-05-19T08:19:18.801Z,4731.00
2023-05-19T08:20:18.750Z,4687.00
2023-05-19T08:21:18.793Z,4783.00
2023-05-19T08:22:18.825Z,4606.00
2023-05-19T08:23:18.805Z,4468.00
2023-05-19T08:24:18.825Z,4365.00
2023-05-19T08:25:18.858Z,4362.00
2023-05-19T08:26:18.870Z,4401.00
2023-05-19T08:27:18.945Z,4487.00
2023-05-19T08:28:19.079Z,4744.00
2023-05-19T08:29:19.018Z,5089.00
2023-05-19T08:30:19.087Z,5321.00
2023-05-19T08:31:19.212Z,5637.00
2023-05-19T08:32:19.169Z,5738.00
2023-05-19T08:33:19.180Z,5690.00
2023-05-19T08:34:19.206Z,5697.00
2023-05-19T08:35:19.225Z,5670.00
2023-05-19T08:36:19.264Z,5641.00
2023-05-19T08:37:19.294Z,5583.00
2023-05-19T08:38:19.301Z,5653.00
2023-05-19T08:39:19.355Z,5359.00
2023-05-19T08:40:19.374Z,5316.00
2023-05-19T08:41:19.456Z,5452.00
2023-05-19T08:42:19.429Z,5440.00
2023-05-19T08:43:19.440Z,5211.00
2023-05-19T08:44:19.566Z,5098.00
2023-05-19T08:45:19.516Z,5093.00
2023-05-19T08:46:19.596Z,4975.00
2023-05-19T08:47:19.965Z,4855.00
2023-05-19T08:48:19.620Z,4760.00
2023-05-19T08:49:19.656Z,4559.00
2023-05-19T08:50:19.720Z,4213.00
2023-05-19T08:51:19.727Z,4095.00
2023-05-19T08:52:19.764Z,4090.00
2023-05-19T08:53:31.738Z,4028.00
2023-05-19T08:54:20.829Z,3913.00
2023-05-19T08:55:19.780Z,3782.00
2023-05-19T08:56:19.774Z,3786.00
2023-05-19T08:57:19.767Z,3744.00
2023-05-19T08:58:19.756Z,3689.00
2023-05-19T08:59:19.750Z,3574.00
2023-05-19T09:00:19.741Z,3723.00
2023-05-19T09:01:19.801Z,3661.00
2023-05-19T09:02:19.732Z,3534.00
2023-05-19T09:03:24.035Z,3451.00
2023-05-19T09:04:19.783Z,3065.00
2023-05-19T09:05:19.773Z,2940.00
2023-05-19T09:06:19.697Z,2963.00
2023-05-19T09:07:19.721Z,3051.00
2023-05-19T09:08:19.696Z,3301.00
2023-05-19T09:09:19.705Z,3384.00
2023-05-19T09:10:19.670Z,3618.00
2023-05-19T09:11:19.683Z,3005.00
2023-05-19T09:12:19.676Z,2613.00
2023-05-19T09:13:19.684Z,2915.00
2023-05-19T09:14:19.647Z,3299.00
2023-05-19T09:15:19.643Z,3255.00
2023-05-19T09:16:19.717Z,3040.00
2023-05-19T09:17:19.710Z,2849.00
2023-05-19T09:18:19.616Z,2782.00
2023-05-19T09:19:19.694Z,2560.00
2023-05-19T09:20:19.660Z,2698.00
2023-05-19T09:21:19.624Z,2954.00
2023-05-19T09:22:19.627Z,3026.00
2023-05-19T09:23:19.600Z,2951.00
2023-05-19T09:24:19.586Z,3308.00
2023-05-19T09:25:19.591Z,3317.00
2023-05-19T09:26:19.578Z,2765.00
2023-05-19T09:27:19.568Z,2396.00
2023-05-19T09:28:19.561Z,2434.00
2023-05-19T09:29:19.570Z,2475.00
2023-05-19T09:30:19.705Z,2389.00
2023-05-19T09:31:19.664Z,2478.00
2023-05-19T09:32:19.780Z,2605.00
2023-05-19T09:33:19.785Z,2532.00
2023-05-19T09:34:19.768Z,2027.00
2023-05-19T09:35:19.819Z,1843.00
2023-05-19T09:36:19.845Z,1936.00
2023-05-19T09:37:19.861Z,1845.00
2023-05-19T09:38:19.882Z,1981.00
2023-05-19T09:39:19.942Z,2426.00
2023-05-19T09:40:19.950Z,2413.00
2023-05-19T09:41:20.967Z,2408.00
2023-05-19T09:42:20.059Z,2281.00
2023-05-19T09:43:20.091Z,2400.00
2023-05-19T09:44:20.110Z,2587.00
2023-05-19T09:45:20.137Z,2926.00
2023-05-19T09:46:20.179Z,3496.00
2023-05-19T09:47:20.166Z,3480.00
2023-05-19T09:48:20.268Z,3385.00
2023-05-19T09:49:20.258Z,3008.00
2023-05-19T09:50:20.258Z,3095.00
2023-05-19T09:51:20.278Z,3340.00
2023-05-19T09:52:20.314Z,3563.00
2023-05-19T09:53:20.360Z,3514.00
2023-05-19T09:54:20.401Z,3182.00
2023-05-19T09:55:20.414Z,2797.00
2023-05-19T09:56:20.465Z,2424.00
2023-05-19T09:57:20.443Z,2177.00
2023-05-19T09:58:20.466Z,2400.00
2023-05-19T09:59:20.475Z,2590.00
2023-05-19T10:00:20.491Z,2647.00
2023-05-19T10:01:20.587Z,2147.00
2023-05-19T10:02:20.597Z,2019.00
2023-05-19T10:03:20.649Z,2209.00
2023-05-19T10:04:20.675Z,2237.00
2023-05-19T10:05:20.832Z,2283.00
2023-05-19T10:06:20.713Z,2237.00
2023-05-19T10:07:20.733Z,2260.00
2023-05-19T10:08:20.750Z,2272.00
2023-05-19T10:09:20.778Z,2243.00
2023-05-19T10:10:20.796Z,2538.00
2023-05-19T10:11:20.851Z,2661.00
2023-05-19T10:12:20.879Z,2547.00
2023-05-19T10:13:20.921Z,2524.00
2023-05-19T10:14:20.961Z,2615.00
2023-05-19T10:15:23.163Z,2705.00
2023-05-19T10:16:21.111Z,2728.00
2023-05-19T10:17:21.066Z,2753.00
2023-05-19T10:18:21.096Z,2378.00
2023-05-19T10:19:21.162Z,2331.00
2023-05-19T10:20:21.182Z,2403.00
2023-05-19T10:21:21.199Z,2375.00
2023-05-19T10:22:21.242Z,2332.00
2023-05-19T10:23:21.257Z,2484.00
2023-05-19T10:24:21.336Z,2491.00
2023-05-19T10:25:21.322Z,2568.00
2023-05-19T10:26:21.341Z,2507.00
2023-05-19T10:27:21.405Z,2616.00
2023-05-19T10:28:21.452Z,2538.00
2023-05-19T10:29:21.473Z,2438.00
2023-05-19T10:30:21.520Z,2293.00
2023-05-19T10:31:21.558Z,2426.00
2023-05-19T10:32:21.798Z,2581.00
2023-05-19T10:33:21.681Z,2308.00
2023-05-19T10:34:21.643Z,2055.00
2023-05-19T10:35:21.673Z,2030.00
2023-05-19T10:36:21.714Z,2066.00
2023-05-19T10:37:21.745Z,2022.00
2023-05-19T10:38:21.756Z,2341.00
2023-05-19T10:39:21.787Z,2184.00
2023-05-19T10:40:21.829Z,2387.00
2023-05-19T10:41:21.845Z,2603.00
2023-05-19T10:42:21.856Z,2647.00
2023-05-19T10:43:21.879Z,2576.00
2023-05-19T10:44:21.893Z,2201.00
2023-05-19T10:45:21.900Z,2029.00
2023-05-19T10:46:21.922Z,2009.00
2023-05-19T10:47:22.003Z,1931.00
2023-05-19T10:48:21.902Z,1940.00
2023-05-19T10:49:21.918Z,1943.00
2023-05-19T10:50:21.900Z,2134.00
2023-05-19T10:51:21.913Z,2134.00
2023-05-19T10:52:21.985Z,2091.00
2023-05-19T10:53:21.940Z,2363.00
2023-05-19T10:54:21.955Z,2480.00
2023-05-19T10:55:21.966Z,2476.00
2023-05-19T10:56:22.005Z,2141.00
2023-05-19T10:57:22.021Z,2091.00
2023-05-19T10:58:22.040Z,2140.00
2023-05-19T10:59:22.068Z,2322.00
2023-05-19T11:00:22.099Z,2413.00
2023-05-19T11:01:22.123Z,2313.00
2023-05-19T11:02:22.638Z,2387.00
2023-05-19T11:03:22.125Z,2337.00
2023-05-19T11:04:22.232Z,2227.00
2023-05-19T11:05:22.209Z,2243.00
2023-05-19T11:06:22.253Z,2374.00
2023-05-19T11:07:22.336Z,2483.00
2023-05-19T11:08:22.340Z,2471.00
2023-05-19T11:09:31.094Z,2325.00
2023-05-19T11:10:23.356Z,2205.00
2023-05-19T11:11:23.433Z,2172.00
2023-05-19T11:12:24.316Z,2139.00
2023-05-19T11:13:23.043Z,2253.00
2023-05-19T11:14:22.446Z,2102.00
2023-05-19T11:15:22.456Z,1874.00
2023-05-19T11:16:22.545Z,1724.00
2023-05-19T11:17:22.563Z,1736.00
2023-05-19T11:18:22.563Z,1659.00
2023-05-19T11:19:22.795Z,2132.00
2023-05-19T11:20:22.663Z,2088.00
2023-05-19T11:21:22.722Z,1745.00
2023-05-19T11:22:22.737Z,1523.00
2023-05-19T11:23:22.785Z,1731.00
2023-05-19T11:24:22.747Z,1795.00
2023-05-19T11:25:22.746Z,1845.00
2023-05-19T11:26:22.808Z,2045.00
2023-05-19T11:27:22.856Z,2146.00
2023-05-19T11:28:22.907Z,2124.00
2023-05-19T11:29:22.932Z,2337.00
2023-05-19T11:30:22.989Z,2271.00
2023-05-19T11:31:23.086Z,2318.00
2023-05-19T11:32:23.552Z,2262.00
2023-05-19T11:33:23.071Z,2353.00
2023-05-19T11:34:23.112Z,2642.00
2023-05-19T11:35:23.103Z,2689.00
2023-05-19T11:36:23.129Z,2488.00
2023-05-19T11:37:23.140Z,2477.00
2023-05-19T11:38:23.140Z,2434.00
2023-05-19T11:39:23.198Z,2403.00
2023-05-19T11:40:23.236Z,2634.00
2023-05-19T11:41:23.215Z,2764.00
2023-05-19T11:42:23.279Z,2295.00
2023-05-19T11:43:23.359Z,2329.00
2023-05-19T11:44:23.360Z,2454.00
2023-05-19T11:45:23.415Z,2328.00
2023-05-19T11:46:23.486Z,2334.00
2023-05-19T11:47:23.499Z,2497.00
2023-05-19T11:48:23.610Z,2877.00
2023-05-19T11:49:23.537Z,2794.00
2023-05-19T11:50:23.640Z,2907.00
2023-05-19T11:51:23.665Z,2891.00
2023-05-19T11:52:23.653Z,2804.00
2023-05-19T11:53:23.683Z,2778.00
2023-05-19T11:54:23.711Z,2804.00
2023-05-19T11:55:23.746Z,2646.00
2023-05-19T11:56:23.737Z,2783.00
2023-05-19T11:57:23.785Z,2852.00
2023-05-19T11:58:23.793Z,2914.00
2023-05-19T11:59:23.843Z,2795.00
2023-05-19T12:00:23.846Z,2827.00
2023-05-19T12:01:23.884Z,3207.00
2023-05-19T12:02:23.904Z,3312.00
2023-05-19T12:03:23.966Z,3433.00
2023-05-19T12:04:23.974Z,3752.00
2023-05-19T12:05:24.082Z,3792.00